Croydon, Utah
Current Conditions -  °F | °C
As of 3:58 PM on Thursday 18 Dec 2014 (Local Time) from KHIF Reporting Station
Broken Clouds Broken Clouds  
Wind Chill: 40°   Ceiling: 7000
Heat Index: 40°   Visibility: 10mi
Dew Point: 31°   Wind: 3mph
Humidity: 68%   Direction: 30°NNE
Pressure: 30.14"   Gusts: NA
Location:  41.07°N, 111.51°W
Report Text: KHIF 182258Z 03003KT 10SM FEW030 BKN070 05/M01 A3014 RMK AO2A SLP207 T00461008
Loading
Personal Weather Stations






























Interactive Weather Map New forecast layout! Learn more

10-Day Weather Forecast

Advertisements
Track Severe Weather on mobile